Home   Weather   Japan   Fukuoka   Past weeks
Flag for Japan

Past Weather in Fukuoka, Japan — Yesterday and Last 2 Weeks

Currently: 39 °F. Clear. (Weather station: Fukuoka Airport, Japan). See more current weather

Past Weather in Fukuoka — Graph

°F

Fukuoka Temperature Yesterday

Maximum temperature yesterday: 57 °F (at 12:30 pm)
Minimum temperature yesterday: 37 °F (at 6:30 am)
Average temperature yesterday: 47 °F

High & Low Weather Summary for the Past Weeks

 TemperatureHumidityPressure
High77 °F (Nov 28, 2:30 pm)100% (Nov 24, 5:00 am)30.39 "Hg (Nov 24, 5:00 am)
Low36 °F (Dec 3, 1:30 am)25% (Nov 25, 3:00 pm)29.77 "Hg (Nov 29, 4:00 am)
Average53 °F67%30.15 "Hg
* Reported Nov 24 5:00 am — Dec 9 5:00 am, Fukuoka. Weather by CustomWeather, © 2022

Note: Actual official high and low records may vary slightly from our data, if they occured in-between our weather recording intervals... More about our weather records

Fukuoka Weather History for the Previous 24 Hours

Scroll right to see more
 ConditionsComfort  
Time TempWeatherWind HumidityBarometerVisibility
5:00 am
Fri, Dec 9
39 °FClear.1 mph87%30.21 "HgN/A
4:30 am41 °FClear.5 mph81%30.21 "HgN/A
4:00 am41 °FClear.3 mph87%30.21 "HgN/A
3:00 am41 °FClear.5 mph81%30.21 "HgN/A
2:30 am41 °FClear.6 mph87%30.21 "HgN/A
2:00 am37 °FChilly.3 mph93%30.21 "HgN/A
1:00 am41 °FQuite cool.3 mph87%30.21 "HgN/A
12:30 am39 °FChilly.3 mph87%30.21 "HgN/A
12:00 am41 °FQuite cool.1 mph87%30.21 "HgN/A
11:00 pm
Thu, Dec 8
43 °FQuite cool.2 mph87%30.21 "HgN/A
10:30 pm43 °FClear.5 mph81%30.21 "Hg10 mi
10:00 pm45 °FPassing clouds.3 mph81%30.21 "HgN/A
9:30 pm45 °FPassing clouds.3 mph81%30.21 "HgN/A
9:00 pm45 °FClear.3 mph81%30.21 "Hg10 mi
8:30 pm46 °FClear.1 mph76%30.24 "Hg10 mi
8:00 pm48 °FClear.2 mph76%30.24 "Hg10 mi
7:30 pm48 °FPassing clouds.3 mph71%30.24 "HgN/A
7:00 pm50 °FClear.7 mph67%30.24 "Hg10 mi
6:30 pm52 °FPassing clouds.7 mph62%30.24 "HgN/A
6:00 pm52 °FPassing clouds.3 mph58%30.24 "HgN/A
5:30 pm50 °FPassing clouds.3 mph62%30.24 "HgN/A
5:00 pm54 °FPassing clouds.3 mph51%30.21 "HgN/A
4:30 pm55 °FPassing clouds.7 mph47%30.21 "HgN/A
4:00 pm57 °FSunny.7 mph44%30.21 "Hg10 mi
3:30 pm57 °FPassing clouds.8 mph44%30.21 "HgN/A
3:00 pm57 °FPartly sunny.9 mph44%30.21 "HgN/A
2:30 pm57 °FPartly sunny.10 mph44%30.21 "HgN/A
2:00 pm57 °FPartly sunny.10 mph44%30.21 "HgN/A
1:30 pm57 °FPartly sunny.10 mph48%30.24 "HgN/A
1:00 pm57 °FPartly sunny.7 mph48%30.24 "HgN/A
12:30 pm57 °FPartly sunny.6 mph48%30.24 "HgN/A
12:00 pm55 °FPartly sunny.2 mph55%30.27 "HgN/A
11:30 am55 °FPartly sunny.3 mph51%30.27 "HgN/A
11:00 am54 °FPartly sunny.6 mph58%30.27 "HgN/A
10:30 am50 °FPartly sunny.7 mph67%30.27 "HgN/A
10:00 am50 °FPartly sunny.5 mph67%30.27 "HgN/A
8:30 am45 °FPartly sunny.5 mph81%30.27 "HgN/A
8:00 am41 °FSunny.2 mph87%30.27 "Hg10 mi
7:30 am37 °FPassing clouds.3 mph87%30.27 "HgN/A
7:00 am39 °FClear.2 mph87%30.24 "Hg10 mi
6:30 am37 °FClear.2 mph93%30.24 "Hg10 mi
6:00 am39 °FClear.2 mph87%30.24 "Hg10 mi
Weather by CustomWeather, © 2022

See weather overview